sensor_id;sensor_type;location;lat;lon;timestamp;temperature;humidity
12307;DHT22;6216;51.146;7.008;2022-10-23T00:01:13;15.60;99.90
12307;DHT22;6216;51.146;7.008;2022-10-23T00:03:41;15.50;99.90
12307;DHT22;6216;51.146;7.008;2022-10-23T00:06:09;15.40;99.90
12307;DHT22;6216;51.146;7.008;2022-10-23T00:08:37;15.40;99.90
12307;DHT22;6216;51.146;7.008;2022-10-23T00:11:09;15.40;99.90
12307;DHT22;6216;51.146;7.008;2022-10-23T00:13:37;15.30;99.90
12307;DHT22;6216;51.146;7.008;2022-10-23T00:16:06;15.30;99.90
12307;DHT22;6216;51.146;7.008;2022-10-23T00:18:35;15.30;99.90
12307;DHT22;6216;51.146;7.008;2022-10-23T00:21:05;15.20;99.90
12307;DHT22;6216;51.146;7.008;2022-10-23T00:23:33;15.20;99.90
12307;DHT22;6216;51.146;7.008;2022-10-23T00:26:01;15.20;99.90
12307;DHT22;6216;51.146;7.008;2022-10-23T00:28:30;15.10;99.90
12307;DHT22;6216;51.146;7.008;2022-10-23T00:31:00;15.10;99.90
12307;DHT22;6216;51.146;7.008;2022-10-23T00:33:29;15.10;99.90
12307;DHT22;6216;51.146;7.008;2022-10-23T00:35:57;15.10;99.90
12307;DHT22;6216;51.146;7.008;2022-10-23T00:38:25;15.10;99.90
12307;DHT22;6216;51.146;7.008;2022-10-23T00:40:53;15.00;99.90
12307;DHT22;6216;51.146;7.008;2022-10-23T00:43:23;15.00;99.90
12307;DHT22;6216;51.146;7.008;2022-10-23T00:45:52;15.00;99.90
12307;DHT22;6216;51.146;7.008;2022-10-23T00:48:20;15.00;99.90
12307;DHT22;6216;51.146;7.008;2022-10-23T00:50:49;15.00;99.90
12307;DHT22;6216;51.146;7.008;2022-10-23T00:53:18;15.00;99.90
12307;DHT22;6216;51.146;7.008;2022-10-23T00:55:48;15.00;99.90
12307;DHT22;6216;51.146;7.008;2022-10-23T00:58:18;15.00;99.90
12307;DHT22;6216;51.146;7.008;2022-10-23T01:00:49;15.00;99.90
12307;DHT22;6216;51.146;7.008;2022-10-23T01:03:20;15.00;99.90
12307;DHT22;6216;51.146;7.008;2022-10-23T01:05:52;14.90;99.90
12307;DHT22;6216;51.146;7.008;2022-10-23T01:08:26;14.90;99.90
12307;DHT22;6216;51.146;7.008;2022-10-23T01:10:59;15.00;99.90
12307;DHT22;6216;51.146;7.008;2022-10-23T01:13:38;15.00;99.90
12307;DHT22;6216;51.146;7.008;2022-10-23T01:16:13;14.90;99.90
12307;DHT22;6216;51.146;7.008;2022-10-23T01:18:46;15.00;99.90
12307;DHT22;6216;51.146;7.008;2022-10-23T01:21:19;14.90;99.90
12307;DHT22;6216;51.146;7.008;2022-10-23T01:24:02;14.90;99.90
12307;DHT22;6216;51.146;7.008;2022-10-23T01:26:48;14.90;99.90
12307;DHT22;6216;51.146;7.008;2022-10-23T01:29:24;14.90;99.90
12307;DHT22;6216;51.146;7.008;2022-10-23T01:31:57;14.90;99.90
12307;DHT22;6216;51.146;7.008;2022-10-23T01:34:29;14.90;99.90
12307;DHT22;6216;51.146;7.008;2022-10-23T01:37:01;15.00;99.90
12307;DHT22;6216;51.146;7.008;2022-10-23T01:39:34;15.00;99.90
12307;DHT22;6216;51.146;7.008;2022-10-23T01:42:07;15.00;99.90
12307;DHT22;6216;51.146;7.008;2022-10-23T01:44:41;15.00;99.90
12307;DHT22;6216;51.146;7.008;2022-10-23T01:47:13;15.00;99.90
12307;DHT22;6216;51.146;7.008;2022-10-23T01:49:43;15.00;99.90
12307;DHT22;6216;51.146;7.008;2022-10-23T01:52:13;15.10;99.90
12307;DHT22;6216;51.146;7.008;2022-10-23T01:54:43;15.00;99.90
12307;DHT22;6216;51.146;7.008;2022-10-23T01:57:15;15.00;99.90
12307;DHT22;6216;51.146;7.008;2022-10-23T01:59:48;15.00;99.90
12307;DHT22;6216;51.146;7.008;2022-10-23T02:02:18;15.00;99.90
12307;DHT22;6216;51.146;7.008;2022-10-23T02:04:50;15.00;99.90
12307;DHT22;6216;51.146;7.008;2022-10-23T02:07:20;15.00;99.90
12307;DHT22;6216;51.146;7.008;2022-10-23T02:09:48;14.90;99.90
12307;DHT22;6216;51.146;7.008;2022-10-23T02:12:25;14.90;99.90
12307;DHT22;6216;51.146;7.008;2022-10-23T02:14:59;14.90;99.90
12307;DHT22;6216;51.146;7.008;2022-10-23T02:17:36;14.90;99.90
12307;DHT22;6216;51.146;7.008;2022-10-23T02:20:18;14.90;99.90
12307;DHT22;6216;51.146;7.008;2022-10-23T02:22:56;14.90;99.90
12307;DHT22;6216;51.146;7.008;2022-10-23T02:25:31;14.90;99.90
12307;DHT22;6216;51.146;7.008;2022-10-23T02:28:03;14.90;99.90
12307;DHT22;6216;51.146;7.008;2022-10-23T02:30:35;14.90;99.90
12307;DHT22;6216;51.146;7.008;2022-10-23T02:33:04;14.90;99.90
12307;DHT22;6216;51.146;7.008;2022-10-23T02:35:32;14.90;99.90
12307;DHT22;6216;51.146;7.008;2022-10-23T02:38:01;14.90;99.90
12307;DHT22;6216;51.146;7.008;2022-10-23T02:40:34;14.90;99.90
12307;DHT22;6216;51.146;7.008;2022-10-23T02:43:09;14.90;99.90
12307;DHT22;6216;51.146;7.008;2022-10-23T02:45:45;14.90;99.90
12307;DHT22;6216;51.146;7.008;2022-10-23T02:48:18;14.90;99.90
12307;DHT22;6216;51.146;7.008;2022-10-23T02:50:52;14.90;99.90
12307;DHT22;6216;51.146;7.008;2022-10-23T02:53:26;14.90;99.90
12307;DHT22;6216;51.146;7.008;2022-10-23T02:56:03;14.90;99.90
12307;DHT22;6216;51.146;7.008;2022-10-23T02:58:39;14.90;99.90
12307;DHT22;6216;51.146;7.008;2022-10-23T03:01:15;14.90;99.90
12307;DHT22;6216;51.146;7.008;2022-10-23T03:03:46;15.00;99.90
12307;DHT22;6216;51.146;7.008;2022-10-23T03:06:17;15.00;99.90
12307;DHT22;6216;51.146;7.008;2022-10-23T03:08:51;15.00;99.90
12307;DHT22;6216;51.146;7.008;2022-10-23T03:11:19;15.00;99.90
12307;DHT22;6216;51.146;7.008;2022-10-23T03:13:47;14.90;99.90
12307;DHT22;6216;51.146;7.008;2022-10-23T03:16:16;14.90;99.90
12307;DHT22;6216;51.146;7.008;2022-10-23T03:18:44;14.90;99.90
12307;DHT22;6216;51.146;7.008;2022-10-23T03:21:12;14.90;99.90
12307;DHT22;6216;51.146;7.008;2022-10-23T03:23:40;14.90;99.90
12307;DHT22;6216;51.146;7.008;2022-10-23T03:26:08;14.90;99.90
12307;DHT22;6216;51.146;7.008;2022-10-23T03:28:36;14.90;99.90
12307;DHT22;6216;51.146;7.008;2022-10-23T03:31:04;14.90;99.90
12307;DHT22;6216;51.146;7.008;2022-10-23T03:33:33;14.90;99.90
12307;DHT22;6216;51.146;7.008;2022-10-23T03:36:01;14.90;99.90
12307;DHT22;6216;51.146;7.008;2022-10-23T03:38:29;14.90;99.90
12307;DHT22;6216;51.146;7.008;2022-10-23T03:40:57;14.90;99.90
12307;DHT22;6216;51.146;7.008;2022-10-23T03:43:25;14.90;99.90
12307;DHT22;6216;51.146;7.008;2022-10-23T03:45:54;14.90;99.90
12307;DHT22;6216;51.146;7.008;2022-10-23T03:48:22;15.00;99.90
12307;DHT22;6216;51.146;7.008;2022-10-23T03:50:52;15.00;99.90
12307;DHT22;6216;51.146;7.008;2022-10-23T03:53:20;15.00;99.90
12307;DHT22;6216;51.146;7.008;2022-10-23T03:55:47;14.90;99.90
12307;DHT22;6216;51.146;7.008;2022-10-23T03:58:15;15.00;99.90
12307;DHT22;6216;51.146;7.008;2022-10-23T04:00:43;14.90;99.90
12307;DHT22;6216;51.146;7.008;2022-10-23T04:03:11;15.00;99.90
12307;DHT22;6216;51.146;7.008;2022-10-23T04:05:40;14.90;99.90
12307;DHT22;6216;51.146;7.008;2022-10-23T04:08:09;14.90;99.90
12307;DHT22;6216;51.146;7.008;2022-10-23T04:10:43;15.00;99.90
12307;DHT22;6216;51.146;7.008;2022-10-23T04:13:10;15.00;99.90
12307;DHT22;6216;51.146;7.008;2022-10-23T04:15:38;14.90;99.90
12307;DHT22;6216;51.146;7.008;2022-10-23T04:18:06;14.90;99.90
12307;DHT22;6216;51.146;7.008;2022-10-23T04:20:34;14.90;99.90
12307;DHT22;6216;51.146;7.008;2022-10-23T04:23:02;14.90;99.90
12307;DHT22;6216;51.146;7.008;2022-10-23T04:25:31;14.90;99.90
12307;DHT22;6216;51.146;7.008;2022-10-23T04:27:59;14.90;99.90
12307;DHT22;6216;51.146;7.008;2022-10-23T04:30:27;14.90;99.90
12307;DHT22;6216;51.146;7.008;2022-10-23T04:32:55;14.90;99.90
12307;DHT22;6216;51.146;7.008;2022-10-23T04:35:23;14.90;99.90
12307;DHT22;6216;51.146;7.008;2022-10-23T04:37:51;14.90;99.90
12307;DHT22;6216;51.146;7.008;2022-10-23T04:40:19;14.90;99.90
12307;DHT22;6216;51.146;7.008;2022-10-23T04:42:48;14.90;99.90
12307;DHT22;6216;51.146;7.008;2022-10-23T04:45:16;14.90;99.90
12307;DHT22;6216;51.146;7.008;2022-10-23T04:47:44;14.90;99.90
12307;DHT22;6216;51.146;7.008;2022-10-23T04:50:12;14.90;99.90
12307;DHT22;6216;51.146;7.008;2022-10-23T04:52:40;14.90;99.90
12307;DHT22;6216;51.146;7.008;2022-10-23T04:55:09;14.90;99.90
12307;DHT22;6216;51.146;7.008;2022-10-23T04:57:36;14.90;99.90
12307;DHT22;6216;51.146;7.008;2022-10-23T05:00:09;14.90;99.90
12307;DHT22;6216;51.146;7.008;2022-10-23T05:02:38;14.90;99.90
12307;DHT22;6216;51.146;7.008;2022-10-23T05:05:07;14.90;99.90
12307;DHT22;6216;51.146;7.008;2022-10-23T05:07:36;14.90;99.90
12307;DHT22;6216;51.146;7.008;2022-10-23T05:10:05;14.90;99.90
12307;DHT22;6216;51.146;7.008;2022-10-23T05:12:33;14.90;99.90
12307;DHT22;6216;51.146;7.008;2022-10-23T05:15:00;14.90;99.90
12307;DHT22;6216;51.146;7.008;2022-10-23T05:17:33;14.90;99.90
12307;DHT22;6216;51.146;7.008;2022-10-23T05:20:03;14.80;99.90
12307;DHT22;6216;51.146;7.008;2022-10-23T05:22:35;14.80;99.90
12307;DHT22;6216;51.146;7.008;2022-10-23T05:25:04;14.80;99.90
12307;DHT22;6216;51.146;7.008;2022-10-23T05:27:32;14.80;99.90
12307;DHT22;6216;51.146;7.008;2022-10-23T05:30:00;14.90;99.90
12307;DHT22;6216;51.146;7.008;2022-10-23T05:32:31;14.90;99.90
12307;DHT22;6216;51.146;7.008;2022-10-23T05:35:01;14.80;99.90
12307;DHT22;6216;51.146;7.008;2022-10-23T05:37:30;14.90;99.90
12307;DHT22;6216;51.146;7.008;2022-10-23T05:39:58;14.90;99.90
12307;DHT22;6216;51.146;7.008;2022-10-23T05:42:26;14.90;99.90
12307;DHT22;6216;51.146;7.008;2022-10-23T05:44:53;14.90;99.90
12307;DHT22;6216;51.146;7.008;2022-10-23T05:47:21;14.90;99.90
12307;DHT22;6216;51.146;7.008;2022-10-23T05:49:50;14.90;99.90
12307;DHT22;6216;51.146;7.008;2022-10-23T05:52:18;14.80;99.90
12307;DHT22;6216;51.146;7.008;2022-10-23T05:54:46;14.80;99.90
12307;DHT22;6216;51.146;7.008;2022-10-23T05:57:14;14.80;99.90
12307;DHT22;6216;51.146;7.008;2022-10-23T05:59:43;14.90;99.90
12307;DHT22;6216;51.146;7.008;2022-10-23T06:02:11;14.90;99.90
12307;DHT22;6216;51.146;7.008;2022-10-23T06:04:38;14.90;99.90
12307;DHT22;6216;51.146;7.008;2022-10-23T06:07:08;14.90;99.90
12307;DHT22;6216;51.146;7.008;2022-10-23T06:09:36;14.90;99.90
12307;DHT22;6216;51.146;7.008;2022-10-23T06:12:04;14.90;99.90
12307;DHT22;6216;51.146;7.008;2022-10-23T06:14:32;14.90;99.90
12307;DHT22;6216;51.146;7.008;2022-10-23T06:17:00;15.00;99.90
12307;DHT22;6216;51.146;7.008;2022-10-23T06:19:28;14.90;99.90
12307;DHT22;6216;51.146;7.008;2022-10-23T06:21:55;14.90;99.90
12307;DHT22;6216;51.146;7.008;2022-10-23T06:24:25;15.00;99.90
12307;DHT22;6216;51.146;7.008;2022-10-23T06:26:53;15.00;99.90
12307;DHT22;6216;51.146;7.008;2022-10-23T06:29:21;15.00;99.90
12307;DHT22;6216;51.146;7.008;2022-10-23T06:31:48;15.00;99.90
12307;DHT22;6216;51.146;7.008;2022-10-23T06:34:16;15.00;99.90
12307;DHT22;6216;51.146;7.008;2022-10-23T06:36:44;15.00;99.90
12307;DHT22;6216;51.146;7.008;2022-10-23T06:39:12;15.00;99.90
12307;DHT22;6216;51.146;7.008;2022-10-23T06:41:42;15.00;99.90
12307;DHT22;6216;51.146;7.008;2022-10-23T06:44:10;15.00;99.90
12307;DHT22;6216;51.146;7.008;2022-10-23T06:46:38;15.00;99.90
12307;DHT22;6216;51.146;7.008;2022-10-23T06:49:06;15.10;99.90
12307;DHT22;6216;51.146;7.008;2022-10-23T06:51:34;15.10;99.90
12307;DHT22;6216;51.146;7.008;2022-10-23T06:54:02;15.10;99.90
12307;DHT22;6216;51.146;7.008;2022-10-23T06:56:30;15.10;99.90
12307;DHT22;6216;51.146;7.008;2022-10-23T06:58:59;15.20;99.90
12307;DHT22;6216;51.146;7.008;2022-10-23T07:01:27;15.20;99.90
12307;DHT22;6216;51.146;7.008;2022-10-23T07:03:56;15.20;99.90
12307;DHT22;6216;51.146;7.008;2022-10-23T07:06:24;15.20;99.90
12307;DHT22;6216;51.146;7.008;2022-10-23T07:08:54;15.30;99.90
12307;DHT22;6216;51.146;7.008;2022-10-23T07:11:22;15.30;99.90
12307;DHT22;6216;51.146;7.008;2022-10-23T07:13:52;15.30;99.90
12307;DHT22;6216;51.146;7.008;2022-10-23T07:16:24;15.30;99.90
12307;DHT22;6216;51.146;7.008;2022-10-23T07:18:56;15.30;99.90
12307;DHT22;6216;51.146;7.008;2022-10-23T07:21:25;15.40;99.90
12307;DHT22;6216;51.146;7.008;2022-10-23T07:23:53;15.30;99.90
12307;DHT22;6216;51.146;7.008;2022-10-23T07:26:21;15.40;99.90
12307;DHT22;6216;51.146;7.008;2022-10-23T07:28:49;15.40;99.90
12307;DHT22;6216;51.146;7.008;2022-10-23T07:31:20;15.40;99.90
12307;DHT22;6216;51.146;7.008;2022-10-23T07:33:55;15.40;99.90
12307;DHT22;6216;51.146;7.008;2022-10-23T07:36:22;15.40;99.90
12307;DHT22;6216;51.146;7.008;2022-10-23T07:38:50;15.50;99.90
12307;DHT22;6216;51.146;7.008;2022-10-23T07:41:18;15.50;99.90
12307;DHT22;6216;51.146;7.008;2022-10-23T07:43:46;15.50;99.90
12307;DHT22;6216;51.146;7.008;2022-10-23T07:46:14;15.60;99.90
12307;DHT22;6216;51.146;7.008;2022-10-23T07:48:42;15.70;99.90
12307;DHT22;6216;51.146;7.008;2022-10-23T07:51:14;15.70;99.90
12307;DHT22;6216;51.146;7.008;2022-10-23T07:53:42;15.80;99.90
12307;DHT22;6216;51.146;7.008;2022-10-23T07:56:13;15.90;99.90
12307;DHT22;6216;51.146;7.008;2022-10-23T07:58:41;16.00;99.90
12307;DHT22;6216;51.146;7.008;2022-10-23T08:01:18;16.00;99.90
12307;DHT22;6216;51.146;7.008;2022-10-23T08:03:46;16.10;99.90
12307;DHT22;6216;51.146;7.008;2022-10-23T08:06:15;16.20;99.90
12307;DHT22;6216;51.146;7.008;2022-10-23T08:08:43;16.30;99.90
12307;DHT22;6216;51.146;7.008;2022-10-23T08:11:19;16.40;99.90
12307;DHT22;6216;51.146;7.008;2022-10-23T08:13:51;16.50;99.90
12307;DHT22;6216;51.146;7.008;2022-10-23T08:16:19;16.70;99.90
12307;DHT22;6216;51.146;7.008;2022-10-23T08:18:47;16.80;99.90
12307;DHT22;6216;51.146;7.008;2022-10-23T08:21:17;16.90;99.90
12307;DHT22;6216;51.146;7.008;2022-10-23T08:23:45;17.00;99.90
12307;DHT22;6216;51.146;7.008;2022-10-23T08:26:13;17.20;99.90
12307;DHT22;6216;51.146;7.008;2022-10-23T08:28:41;17.40;99.90
12307;DHT22;6216;51.146;7.008;2022-10-23T08:31:11;17.50;99.90
12307;DHT22;6216;51.146;7.008;2022-10-23T08:33:40;17.60;99.90
12307;DHT22;6216;51.146;7.008;2022-10-23T08:36:17;17.70;99.90
12307;DHT22;6216;51.146;7.008;2022-10-23T08:38:45;17.80;99.90
12307;DHT22;6216;51.146;7.008;2022-10-23T08:41:22;18.00;99.90
12307;DHT22;6216;51.146;7.008;2022-10-23T08:43:53;18.10;99.90
12307;DHT22;6216;51.146;7.008;2022-10-23T08:46:25;18.20;99.90
12307;DHT22;6216;51.146;7.008;2022-10-23T08:48:59;18.20;99.90
12307;DHT22;6216;51.146;7.008;2022-10-23T08:51:39;18.30;99.90
12307;DHT22;6216;51.146;7.008;2022-10-23T08:54:13;18.30;99.90
12307;DHT22;6216;51.146;7.008;2022-10-23T08:56:47;18.30;99.90
12307;DHT22;6216;51.146;7.008;2022-10-23T08:59:20;18.30;99.90
12307;DHT22;6216;51.146;7.008;2022-10-23T09:01:56;18.40;99.90
12307;DHT22;6216;51.146;7.008;2022-10-23T09:04:25;18.40;99.90
12307;DHT22;6216;51.146;7.008;2022-10-23T09:06:58;18.40;99.90
12307;DHT22;6216;51.146;7.008;2022-10-23T09:09:49;18.60;99.90
12307;DHT22;6216;51.146;7.008;2022-10-23T09:12:21;18.70;99.90
12307;DHT22;6216;51.146;7.008;2022-10-23T09:14:59;18.90;99.90
12307;DHT22;6216;51.146;7.008;2022-10-23T09:17:30;19.00;99.90
12307;DHT22;6216;51.146;7.008;2022-10-23T09:20:10;19.10;99.90
12307;DHT22;6216;51.146;7.008;2022-10-23T09:22:41;19.20;99.90
12307;DHT22;6216;51.146;7.008;2022-10-23T09:25:14;19.30;99.90
12307;DHT22;6216;51.146;7.008;2022-10-23T09:27:46;19.30;99.90
12307;DHT22;6216;51.146;7.008;2022-10-23T09:30:31;19.40;99.90
12307;DHT22;6216;51.146;7.008;2022-10-23T09:32:59;19.50;99.90
12307;DHT22;6216;51.146;7.008;2022-10-23T09:35:29;19.50;99.90
12307;DHT22;6216;51.146;7.008;2022-10-23T09:37:58;19.60;99.90
12307;DHT22;6216;51.146;7.008;2022-10-23T09:40:31;19.60;99.90
12307;DHT22;6216;51.146;7.008;2022-10-23T09:43:17;19.60;99.90
12307;DHT22;6216;51.146;7.008;2022-10-23T09:45:55;19.50;99.90
12307;DHT22;6216;51.146;7.008;2022-10-23T09:48:23;19.60;99.90
12307;DHT22;6216;51.146;7.008;2022-10-23T09:50:53;19.70;99.90
12307;DHT22;6216;51.146;7.008;2022-10-23T09:53:29;19.70;99.90
12307;DHT22;6216;51.146;7.008;2022-10-23T09:56:00;19.80;99.90
12307;DHT22;6216;51.146;7.008;2022-10-23T09:58:35;19.80;99.90
12307;DHT22;6216;51.146;7.008;2022-10-23T10:01:50;19.80;99.90
12307;DHT22;6216;51.146;7.008;2022-10-23T10:04:33;20.00;99.90
12307;DHT22;6216;51.146;7.008;2022-10-23T10:07:18;20.00;99.90
12307;DHT22;6216;51.146;7.008;2022-10-23T10:14:12;19.90;99.90
12307;DHT22;6216;51.146;7.008;2022-10-23T10:16:54;19.70;99.90
12307;DHT22;6216;51.146;7.008;2022-10-23T10:23:30;19.40;99.90
12307;DHT22;6216;51.146;7.008;2022-10-23T10:27:47;19.50;99.90
12307;DHT22;6216;51.146;7.008;2022-10-23T10:30:42;19.50;99.90
12307;DHT22;6216;51.146;7.008;2022-10-23T10:37:24;19.50;99.90
12307;DHT22;6216;51.146;7.008;2022-10-23T10:40:30;19.50;99.90
12307;DHT22;6216;51.146;7.008;2022-10-23T10:43:42;19.40;99.90
12307;DHT22;6216;51.146;7.008;2022-10-23T10:46:19;19.30;99.90
12307;DHT22;6216;51.146;7.008;2022-10-23T10:48:55;19.20;99.90
12307;DHT22;6216;51.146;7.008;2022-10-23T10:51:29;19.30;99.90
12307;DHT22;6216;51.146;7.008;2022-10-23T10:54:10;19.20;99.90
12307;DHT22;6216;51.146;7.008;2022-10-23T10:56:44;19.10;99.90
12307;DHT22;6216;51.146;7.008;2022-10-23T10:59:17;19.20;99.90
12307;DHT22;6216;51.146;7.008;2022-10-23T11:01:51;19.10;99.90
12307;DHT22;6216;51.146;7.008;2022-10-23T11:04:34;19.20;99.90
12307;DHT22;6216;51.146;7.008;2022-10-23T11:07:21;19.10;99.90
12307;DHT22;6216;51.146;7.008;2022-10-23T11:09:51;19.10;99.90
12307;DHT22;6216;51.146;7.008;2022-10-23T11:12:24;19.10;99.90
12307;DHT22;6216;51.146;7.008;2022-10-23T11:14:55;19.10;99.90
12307;DHT22;6216;51.146;7.008;2022-10-23T11:17:25;19.10;99.90
12307;DHT22;6216;51.146;7.008;2022-10-23T11:20:00;19.10;99.90
12307;DHT22;6216;51.146;7.008;2022-10-23T11:22:34;19.10;99.90
12307;DHT22;6216;51.146;7.008;2022-10-23T11:25:24;19.10;99.90
12307;DHT22;6216;51.146;7.008;2022-10-23T11:28:10;19.00;99.90
12307;DHT22;6216;51.146;7.008;2022-10-23T11:30:57;18.90;99.90
12307;DHT22;6216;51.146;7.008;2022-10-23T11:33:50;18.90;99.90
12307;DHT22;6216;51.146;7.008;2022-10-23T11:36:41;18.80;99.90
12307;DHT22;6216;51.146;7.008;2022-10-23T11:39:20;18.80;99.90
12307;DHT22;6216;51.146;7.008;2022-10-23T11:42:12;18.80;99.90
12307;DHT22;6216;51.146;7.008;2022-10-23T11:44:43;18.80;99.90
12307;DHT22;6216;51.146;7.008;2022-10-23T11:47:28;18.70;99.90
12307;DHT22;6216;51.146;7.008;2022-10-23T11:50:16;18.70;99.90
12307;DHT22;6216;51.146;7.008;2022-10-23T11:52:54;18.60;99.90
12307;DHT22;6216;51.146;7.008;2022-10-23T11:55:39;18.70;99.90
12307;DHT22;6216;51.146;7.008;2022-10-23T11:58:21;18.70;99.90
12307;DHT22;6216;51.146;7.008;2022-10-23T12:01:00;18.80;99.90
12307;DHT22;6216;51.146;7.008;2022-10-23T12:03:48;19.20;99.90
12307;DHT22;6216;51.146;7.008;2022-10-23T12:06:29;19.70;99.90
12307;DHT22;6216;51.146;7.008;2022-10-23T12:09:06;20.10;99.90
12307;DHT22;6216;51.146;7.008;2022-10-23T12:11:47;20.40;99.90
12307;DHT22;6216;51.146;7.008;2022-10-23T12:14:35;20.80;99.90
12307;DHT22;6216;51.146;7.008;2022-10-23T12:17:24;21.20;99.90
12307;DHT22;6216;51.146;7.008;2022-10-23T12:30:38;21.80;99.90
12307;DHT22;6216;51.146;7.008;2022-10-23T12:33:21;21.80;99.90
12307;DHT22;6216;51.146;7.008;2022-10-23T12:36:46;21.70;99.90
12307;DHT22;6216;51.146;7.008;2022-10-23T12:39:29;21.40;99.90
12307;DHT22;6216;51.146;7.008;2022-10-23T12:42:00;21.40;99.90
12307;DHT22;6216;51.146;7.008;2022-10-23T12:44:28;21.30;99.90
12307;DHT22;6216;51.146;7.008;2022-10-23T12:46:58;21.40;99.90
12307;DHT22;6216;51.146;7.008;2022-10-23T12:49:30;21.50;99.90
12307;DHT22;6216;51.146;7.008;2022-10-23T12:52:02;21.20;99.90
12307;DHT22;6216;51.146;7.008;2022-10-23T12:54:31;21.20;99.90
12307;DHT22;6216;51.146;7.008;2022-10-23T12:56:59;21.20;99.90
12307;DHT22;6216;51.146;7.008;2022-10-23T12:59:35;21.20;99.90
12307;DHT22;6216;51.146;7.008;2022-10-23T13:02:13;21.10;99.90
12307;DHT22;6216;51.146;7.008;2022-10-23T13:04:50;20.90;99.90
12307;DHT22;6216;51.146;7.008;2022-10-23T13:07:22;20.90;99.90
12307;DHT22;6216;51.146;7.008;2022-10-23T13:09:50;20.80;99.90
12307;DHT22;6216;51.146;7.008;2022-10-23T13:12:21;20.60;99.90
12307;DHT22;6216;51.146;7.008;2022-10-23T13:14:56;20.60;99.90
12307;DHT22;6216;51.146;7.008;2022-10-23T13:17:33;20.50;99.90
12307;DHT22;6216;51.146;7.008;2022-10-23T13:20:18;20.30;99.90
12307;DHT22;6216;51.146;7.008;2022-10-23T13:22:47;20.20;99.90
12307;DHT22;6216;51.146;7.008;2022-10-23T13:25:21;20.20;99.90
12307;DHT22;6216;51.146;7.008;2022-10-23T13:27:50;20.10;99.90
12307;DHT22;6216;51.146;7.008;2022-10-23T13:30:28;20.00;99.90
12307;DHT22;6216;51.146;7.008;2022-10-23T13:32:56;19.90;99.90
12307;DHT22;6216;51.146;7.008;2022-10-23T13:35:26;19.80;99.90
12307;DHT22;6216;51.146;7.008;2022-10-23T13:37:54;19.80;99.90
12307;DHT22;6216;51.146;7.008;2022-10-23T13:40:24;19.70;99.90
12307;DHT22;6216;51.146;7.008;2022-10-23T13:42:54;19.70;99.90
12307;DHT22;6216;51.146;7.008;2022-10-23T13:45:24;19.70;99.90
12307;DHT22;6216;51.146;7.008;2022-10-23T13:47:52;19.70;99.90
12307;DHT22;6216;51.146;7.008;2022-10-23T13:50:20;19.60;99.90
12307;DHT22;6216;51.146;7.008;2022-10-23T13:52:50;19.60;99.90
12307;DHT22;6216;51.146;7.008;2022-10-23T13:55:21;19.60;99.90
12307;DHT22;6216;51.146;7.008;2022-10-23T13:57:49;19.60;99.90
12307;DHT22;6216;51.146;7.008;2022-10-23T14:00:17;19.60;99.90
12307;DHT22;6216;51.146;7.008;2022-10-23T14:02:45;19.50;99.90
12307;DHT22;6216;51.146;7.008;2022-10-23T14:05:15;19.50;99.90
12307;DHT22;6216;51.146;7.008;2022-10-23T14:07:43;19.40;99.90
12307;DHT22;6216;51.146;7.008;2022-10-23T14:10:13;19.40;99.90
12307;DHT22;6216;51.146;7.008;2022-10-23T14:12:41;19.30;99.90
12307;DHT22;6216;51.146;7.008;2022-10-23T14:15:11;19.20;99.90
12307;DHT22;6216;51.146;7.008;2022-10-23T14:17:39;19.20;99.90
12307;DHT22;6216;51.146;7.008;2022-10-23T14:20:11;19.20;99.90
12307;DHT22;6216;51.146;7.008;2022-10-23T14:22:47;19.20;99.90
12307;DHT22;6216;51.146;7.008;2022-10-23T14:25:27;19.20;99.90
12307;DHT22;6216;51.146;7.008;2022-10-23T14:27:55;19.10;99.90
12307;DHT22;6216;51.146;7.008;2022-10-23T14:30:23;19.10;99.90
12307;DHT22;6216;51.146;7.008;2022-10-23T14:32:57;19.10;99.90
12307;DHT22;6216;51.146;7.008;2022-10-23T14:35:28;19.10;99.90
12307;DHT22;6216;51.146;7.008;2022-10-23T14:38:01;19.10;99.90
12307;DHT22;6216;51.146;7.008;2022-10-23T14:43:36;19.00;99.90
12307;DHT22;6216;51.146;7.008;2022-10-23T14:46:14;19.00;99.90
12307;DHT22;6216;51.146;7.008;2022-10-23T14:48:46;19.00;99.90
12307;DHT22;6216;51.146;7.008;2022-10-23T14:51:28;19.00;99.90
12307;DHT22;6216;51.146;7.008;2022-10-23T14:53:58;19.00;99.90
12307;DHT22;6216;51.146;7.008;2022-10-23T14:56:31;19.00;99.90
12307;DHT22;6216;51.146;7.008;2022-10-23T14:58:59;18.90;99.90
12307;DHT22;6216;51.146;7.008;2022-10-23T15:01:29;18.90;99.90
12307;DHT22;6216;51.146;7.008;2022-10-23T15:03:58;18.90;99.90
12307;DHT22;6216;51.146;7.008;2022-10-23T15:06:26;18.80;99.90
12307;DHT22;6216;51.146;7.008;2022-10-23T15:08:54;18.80;99.90
12307;DHT22;6216;51.146;7.008;2022-10-23T15:11:23;18.70;99.90
12307;DHT22;6216;51.146;7.008;2022-10-23T15:13:53;18.80;99.90
12307;DHT22;6216;51.146;7.008;2022-10-23T15:16:22;18.80;99.90
12307;DHT22;6216;51.146;7.008;2022-10-23T15:18:50;18.80;99.90
12307;DHT22;6216;51.146;7.008;2022-10-23T15:21:20;18.70;99.90
12307;DHT22;6216;51.146;7.008;2022-10-23T15:24:02;18.70;99.90
12307;DHT22;6216;51.146;7.008;2022-10-23T15:26:30;18.70;99.90
12307;DHT22;6216;51.146;7.008;2022-10-23T15:29:01;18.70;99.90
12307;DHT22;6216;51.146;7.008;2022-10-23T15:31:51;18.70;99.90
12307;DHT22;6216;51.146;7.008;2022-10-23T15:34:21;18.70;99.90
12307;DHT22;6216;51.146;7.008;2022-10-23T15:36:50;18.70;99.90
12307;DHT22;6216;51.146;7.008;2022-10-23T15:39:20;18.70;99.90
12307;DHT22;6216;51.146;7.008;2022-10-23T15:41:50;18.80;99.90
12307;DHT22;6216;51.146;7.008;2022-10-23T15:44:21;18.70;99.90
12307;DHT22;6216;51.146;7.008;2022-10-23T15:46:49;18.70;99.90
12307;DHT22;6216;51.146;7.008;2022-10-23T15:49:18;18.70;99.90
12307;DHT22;6216;51.146;7.008;2022-10-23T15:51:46;18.70;99.90
12307;DHT22;6216;51.146;7.008;2022-10-23T15:54:15;18.60;99.90
12307;DHT22;6216;51.146;7.008;2022-10-23T15:56:45;18.60;99.90
12307;DHT22;6216;51.146;7.008;2022-10-23T15:59:14;18.60;99.90
12307;DHT22;6216;51.146;7.008;2022-10-23T16:01:44;18.60;99.90
12307;DHT22;6216;51.146;7.008;2022-10-23T16:04:12;18.50;99.90
12307;DHT22;6216;51.146;7.008;2022-10-23T16:06:40;18.50;99.90
12307;DHT22;6216;51.146;7.008;2022-10-23T16:09:08;18.50;99.90
12307;DHT22;6216;51.146;7.008;2022-10-23T16:11:37;18.50;99.90
12307;DHT22;6216;51.146;7.008;2022-10-23T16:14:10;18.60;99.90
12307;DHT22;6216;51.146;7.008;2022-10-23T16:16:38;18.60;99.90
12307;DHT22;6216;51.146;7.008;2022-10-23T16:19:09;18.60;99.90
12307;DHT22;6216;51.146;7.008;2022-10-23T16:21:37;18.60;99.90
12307;DHT22;6216;51.146;7.008;2022-10-23T16:24:07;18.60;99.90
12307;DHT22;6216;51.146;7.008;2022-10-23T16:26:35;18.60;99.90
12307;DHT22;6216;51.146;7.008;2022-10-23T16:29:05;18.60;99.90
12307;DHT22;6216;51.146;7.008;2022-10-23T16:31:33;18.60;99.90
12307;DHT22;6216;51.146;7.008;2022-10-23T16:34:02;18.60;99.90
12307;DHT22;6216;51.146;7.008;2022-10-23T16:36:33;18.60;99.90
12307;DHT22;6216;51.146;7.008;2022-10-23T16:39:05;18.60;99.90
12307;DHT22;6216;51.146;7.008;2022-10-23T16:41:32;18.60;99.90
12307;DHT22;6216;51.146;7.008;2022-10-23T16:44:00;18.50;99.90